sensor_id;sensor_type;location;lat;lon;timestamp;pressure;altitude;pressure_sealevel;temperature;humidity
9249;BME280;4660;41.768;26.198;2022-12-18T00:01:02;101484.50;;;11.72;100.00
9249;BME280;4660;41.768;26.198;2022-12-18T00:03:35;101483.63;;;11.71;100.00
9249;BME280;4660;41.768;26.198;2022-12-18T00:06:01;101479.41;;;11.57;100.00
9249;BME280;4660;41.768;26.198;2022-12-18T00:08:27;101482.22;;;11.56;100.00
9249;BME280;4660;41.768;26.198;2022-12-18T00:10:53;101475.84;;;11.57;100.00
9249;BME280;4660;41.768;26.198;2022-12-18T00:13:19;101485.09;;;11.43;100.00
9249;BME280;4660;41.768;26.198;2022-12-18T00:15:44;101489.78;;;11.30;100.00
9249;BME280;4660;41.768;26.198;2022-12-18T00:18:10;101484.63;;;11.38;100.00
9249;BME280;4660;41.768;26.198;2022-12-18T00:20:39;101496.50;;;11.36;100.00
9249;BME280;4660;41.768;26.198;2022-12-18T00:23:06;101508.94;;;11.59;100.00
9249;BME280;4660;41.768;26.198;2022-12-18T00:25:36;101530.94;;;11.64;100.00
9249;BME280;4660;41.768;26.198;2022-12-18T00:28:02;101528.72;;;11.80;100.00
9249;BME280;4660;41.768;26.198;2022-12-18T00:30:28;101521.59;;;11.79;100.00
9249;BME280;4660;41.768;26.198;2022-12-18T00:32:54;101519.78;;;11.69;100.00
9249;BME280;4660;41.768;26.198;2022-12-18T00:35:19;101493.44;;;11.72;100.00
9249;BME280;4660;41.768;26.198;2022-12-18T00:37:45;101489.75;;;11.73;100.00
9249;BME280;4660;41.768;26.198;2022-12-18T00:40:11;101528.06;;;11.77;100.00
9249;BME280;4660;41.768;26.198;2022-12-18T00:42:37;101536.31;;;11.75;100.00
9249;BME280;4660;41.768;26.198;2022-12-18T00:45:22;101539.19;;;11.95;100.00
9249;BME280;4660;41.768;26.198;2022-12-18T00:47:48;101533.47;;;11.88;100.00
9249;BME280;4660;41.768;26.198;2022-12-18T00:50:13;101549.03;;;11.84;100.00
9249;BME280;4660;41.768;26.198;2022-12-18T00:52:39;101466.41;;;11.30;100.00
9249;BME280;4660;41.768;26.198;2022-12-18T00:55:05;101531.47;;;11.90;100.00
9249;BME280;4660;41.768;26.198;2022-12-18T00:57:30;101518.66;;;11.71;100.00
9249;BME280;4660;41.768;26.198;2022-12-18T00:59:56;101521.84;;;11.76;100.00
9249;BME280;4660;41.768;26.198;2022-12-18T01:02:21;101505.25;;;11.60;100.00
9249;BME280;4660;41.768;26.198;2022-12-18T01:04:47;101523.31;;;11.80;100.00
9249;BME280;4660;41.768;26.198;2022-12-18T01:07:12;101534.78;;;11.94;100.00
9249;BME280;4660;41.768;26.198;2022-12-18T01:09:38;101522.06;;;11.84;100.00
9249;BME280;4660;41.768;26.198;2022-12-18T01:12:04;101536.50;;;11.95;100.00
9249;BME280;4660;41.768;26.198;2022-12-18T01:14:29;101518.84;;;11.91;100.00
9249;BME280;4660;41.768;26.198;2022-12-18T01:16:55;101517.81;;;12.03;100.00
9249;BME280;4660;41.768;26.198;2022-12-18T01:19:20;101504.13;;;11.95;100.00
9249;BME280;4660;41.768;26.198;2022-12-18T01:21:46;101488.72;;;11.85;100.00
9249;BME280;4660;41.768;26.198;2022-12-18T01:24:12;101507.50;;;11.87;100.00
9249;BME280;4660;41.768;26.198;2022-12-18T01:26:37;101518.13;;;11.89;100.00
9249;BME280;4660;41.768;26.198;2022-12-18T01:29:03;101517.56;;;11.74;100.00
9249;BME280;4660;41.768;26.198;2022-12-18T01:31:31;101524.81;;;11.73;100.00
9249;BME280;4660;41.768;26.198;2022-12-18T01:33:57;101524.28;;;11.79;100.00
9249;BME280;4660;41.768;26.198;2022-12-18T01:36:33;101522.09;;;11.73;100.00
9249;BME280;4660;41.768;26.198;2022-12-18T01:39:00;101519.38;;;11.84;100.00
9249;BME280;4660;41.768;26.198;2022-12-18T01:41:28;101506.38;;;11.78;100.00
9249;BME280;4660;41.768;26.198;2022-12-18T01:47:20;101508.88;;;11.70;100.00
9249;BME280;4660;41.768;26.198;2022-12-18T01:49:47;101499.34;;;11.66;100.00
9249;BME280;4660;41.768;26.198;2022-12-18T01:52:13;101500.34;;;11.65;100.00
9249;BME280;4660;41.768;26.198;2022-12-18T01:54:40;101501.34;;;11.53;100.00
9249;BME280;4660;41.768;26.198;2022-12-18T01:57:05;101515.75;;;11.63;100.00
9249;BME280;4660;41.768;26.198;2022-12-18T01:59:32;101522.00;;;11.64;100.00
9249;BME280;4660;41.768;26.198;2022-12-18T02:01:59;101537.59;;;11.60;100.00
9249;BME280;4660;41.768;26.198;2022-12-18T02:04:27;101547.16;;;11.53;100.00
9249;BME280;4660;41.768;26.198;2022-12-18T02:07:14;101547.88;;;11.55;100.00
9249;BME280;4660;41.768;26.198;2022-12-18T02:13:06;101553.97;;;11.68;100.00
9249;BME280;4660;41.768;26.198;2022-12-18T02:15:47;101551.00;;;11.82;100.00
9249;BME280;4660;41.768;26.198;2022-12-18T02:18:20;101549.84;;;11.96;100.00
9249;BME280;4660;41.768;26.198;2022-12-18T02:20:51;101557.13;;;11.84;100.00
9249;BME280;4660;41.768;26.198;2022-12-18T02:26:41;101551.53;;;11.65;100.00
9249;BME280;4660;41.768;26.198;2022-12-18T02:29:12;101546.03;;;11.55;100.00
9249;BME280;4660;41.768;26.198;2022-12-18T02:31:44;101544.09;;;11.57;100.00
9249;BME280;4660;41.768;26.198;2022-12-18T02:34:12;101550.94;;;11.62;100.00
9249;BME280;4660;41.768;26.198;2022-12-18T02:36:40;101543.47;;;11.65;100.00
9249;BME280;4660;41.768;26.198;2022-12-18T02:39:10;101533.19;;;11.59;100.00
9249;BME280;4660;41.768;26.198;2022-12-18T02:41:37;101553.38;;;11.65;100.00
9249;BME280;4660;41.768;26.198;2022-12-18T02:44:08;101580.91;;;11.79;100.00
9249;BME280;4660;41.768;26.198;2022-12-18T02:46:41;101572.78;;;11.91;100.00
9249;BME280;4660;41.768;26.198;2022-12-18T03:00:16;101601.22;;;11.95;100.00
9249;BME280;4660;41.768;26.198;2022-12-18T03:07:49;101607.81;;;12.02;100.00
9249;BME280;4660;41.768;26.198;2022-12-18T03:10:20;101601.13;;;12.17;100.00
9249;BME280;4660;41.768;26.198;2022-12-18T03:12:56;101590.63;;;12.03;100.00
9249;BME280;4660;41.768;26.198;2022-12-18T03:15:30;101594.25;;;12.13;100.00
9249;BME280;4660;41.768;26.198;2022-12-18T03:18:06;101602.06;;;11.95;100.00
9249;BME280;4660;41.768;26.198;2022-12-18T03:20:35;101617.13;;;11.98;100.00
9249;BME280;4660;41.768;26.198;2022-12-18T03:23:08;101612.50;;;11.89;100.00
9249;BME280;4660;41.768;26.198;2022-12-18T03:25:39;101596.00;;;11.82;100.00
9249;BME280;4660;41.768;26.198;2022-12-18T03:28:09;101615.34;;;11.87;100.00
9249;BME280;4660;41.768;26.198;2022-12-18T03:30:38;101614.47;;;11.75;100.00
9249;BME280;4660;41.768;26.198;2022-12-18T03:33:10;101624.41;;;11.75;100.00
9249;BME280;4660;41.768;26.198;2022-12-18T03:35:41;101618.19;;;12.06;100.00
9249;BME280;4660;41.768;26.198;2022-12-18T03:38:09;101626.56;;;12.03;100.00
9249;BME280;4660;41.768;26.198;2022-12-18T03:46:17;101633.81;;;11.92;100.00
9249;BME280;4660;41.768;26.198;2022-12-18T03:49:06;101629.41;;;11.91;100.00
9249;BME280;4660;41.768;26.198;2022-12-18T03:51:54;101631.28;;;11.79;100.00
9249;BME280;4660;41.768;26.198;2022-12-18T03:54:22;101629.34;;;11.81;100.00
9249;BME280;4660;41.768;26.198;2022-12-18T03:56:57;101644.38;;;11.83;100.00
9249;BME280;4660;41.768;26.198;2022-12-18T03:59:25;101653.09;;;11.87;100.00
9249;BME280;4660;41.768;26.198;2022-12-18T04:01:53;101654.66;;;11.90;100.00
9249;BME280;4660;41.768;26.198;2022-12-18T04:04:21;101654.88;;;11.98;100.00
9249;BME280;4660;41.768;26.198;2022-12-18T04:06:48;101646.78;;;11.98;100.00
9249;BME280;4660;41.768;26.198;2022-12-18T04:09:15;101658.00;;;11.93;100.00
9249;BME280;4660;41.768;26.198;2022-12-18T04:11:41;101662.03;;;11.88;100.00
9249;BME280;4660;41.768;26.198;2022-12-18T04:14:09;101651.00;;;11.79;100.00
9249;BME280;4660;41.768;26.198;2022-12-18T04:16:35;101655.19;;;11.72;100.00
9249;BME280;4660;41.768;26.198;2022-12-18T04:19:00;101652.09;;;11.77;100.00
9249;BME280;4660;41.768;26.198;2022-12-18T04:21:26;101660.56;;;11.72;100.00
9249;BME280;4660;41.768;26.198;2022-12-18T04:23:52;101664.75;;;11.88;100.00
9249;BME280;4660;41.768;26.198;2022-12-18T04:26:17;101652.22;;;11.64;100.00
9249;BME280;4660;41.768;26.198;2022-12-18T04:28:43;101675.50;;;11.76;100.00
9249;BME280;4660;41.768;26.198;2022-12-18T04:31:08;101668.66;;;11.72;100.00
9249;BME280;4660;41.768;26.198;2022-12-18T04:33:34;101673.78;;;11.64;100.00
9249;BME280;4660;41.768;26.198;2022-12-18T04:35:59;101668.41;;;11.64;100.00
9249;BME280;4660;41.768;26.198;2022-12-18T04:38:25;101681.03;;;11.64;100.00
9249;BME280;4660;41.768;26.198;2022-12-18T04:40:51;101678.97;;;11.67;100.00
9249;BME280;4660;41.768;26.198;2022-12-18T04:43:16;101668.19;;;11.56;100.00
9249;BME280;4660;41.768;26.198;2022-12-18T04:45:42;101688.75;;;11.57;100.00
9249;BME280;4660;41.768;26.198;2022-12-18T04:48:08;101676.50;;;11.64;100.00
9249;BME280;4660;41.768;26.198;2022-12-18T04:50:33;101681.78;;;11.66;100.00
9249;BME280;4660;41.768;26.198;2022-12-18T04:52:59;101695.63;;;11.72;100.00
9249;BME280;4660;41.768;26.198;2022-12-18T04:55:24;101695.34;;;11.64;100.00
9249;BME280;4660;41.768;26.198;2022-12-18T04:57:50;101706.00;;;11.77;100.00
9249;BME280;4660;41.768;26.198;2022-12-18T05:00:16;101700.53;;;11.67;100.00
9249;BME280;4660;41.768;26.198;2022-12-18T05:02:42;101694.63;;;11.62;100.00
9249;BME280;4660;41.768;26.198;2022-12-18T05:05:08;101704.69;;;11.60;100.00
9249;BME280;4660;41.768;26.198;2022-12-18T05:07:33;101704.56;;;11.73;100.00
9249;BME280;4660;41.768;26.198;2022-12-18T05:10:00;101690.59;;;11.56;100.00
9249;BME280;4660;41.768;26.198;2022-12-18T05:12:25;101707.75;;;11.67;100.00
9249;BME280;4660;41.768;26.198;2022-12-18T05:14:51;101698.53;;;11.69;100.00
9249;BME280;4660;41.768;26.198;2022-12-18T05:17:17;101689.25;;;11.73;100.00
9249;BME280;4660;41.768;26.198;2022-12-18T05:19:42;101711.19;;;11.80;100.00
9249;BME280;4660;41.768;26.198;2022-12-18T05:22:09;101723.03;;;11.77;100.00
9249;BME280;4660;41.768;26.198;2022-12-18T05:24:34;101735.34;;;11.81;100.00
9249;BME280;4660;41.768;26.198;2022-12-18T05:27:00;101712.66;;;11.62;100.00
9249;BME280;4660;41.768;26.198;2022-12-18T05:29:25;101730.41;;;11.75;100.00
9249;BME280;4660;41.768;26.198;2022-12-18T05:31:51;101724.41;;;11.72;100.00
9249;BME280;4660;41.768;26.198;2022-12-18T05:34:17;101746.31;;;11.78;100.00
9249;BME280;4660;41.768;26.198;2022-12-18T05:36:42;101750.75;;;11.79;100.00
9249;BME280;4660;41.768;26.198;2022-12-18T05:39:08;101747.47;;;11.87;100.00
9249;BME280;4660;41.768;26.198;2022-12-18T05:41:34;101725.03;;;11.87;100.00
9249;BME280;4660;41.768;26.198;2022-12-18T05:43:59;101749.41;;;11.96;100.00
9249;BME280;4660;41.768;26.198;2022-12-18T05:46:25;101746.97;;;11.82;100.00
9249;BME280;4660;41.768;26.198;2022-12-18T05:48:51;101723.78;;;11.57;100.00
9249;BME280;4660;41.768;26.198;2022-12-18T05:51:19;101771.00;;;11.85;100.00
9249;BME280;4660;41.768;26.198;2022-12-18T05:53:46;101770.84;;;11.75;100.00
9249;BME280;4660;41.768;26.198;2022-12-18T05:56:14;101784.06;;;11.78;100.00
9249;BME280;4660;41.768;26.198;2022-12-18T05:58:41;101785.81;;;11.79;100.00
9249;BME280;4660;41.768;26.198;2022-12-18T06:01:18;101786.66;;;11.80;100.00
9249;BME280;4660;41.768;26.198;2022-12-18T06:03:44;101783.13;;;11.91;100.00
9249;BME280;4660;41.768;26.198;2022-12-18T06:06:36;101778.69;;;12.12;100.00
9249;BME280;4660;41.768;26.198;2022-12-18T06:09:13;101728.69;;;11.85;100.00
9249;BME280;4660;41.768;26.198;2022-12-18T06:11:41;101703.72;;;11.39;100.00
9249;BME280;4660;41.768;26.198;2022-12-18T06:14:07;101809.13;;;12.03;100.00
9249;BME280;4660;41.768;26.198;2022-12-18T06:16:33;101785.34;;;11.97;100.00
9249;BME280;4660;41.768;26.198;2022-12-18T06:19:00;101814.41;;;11.93;100.00
9249;BME280;4660;41.768;26.198;2022-12-18T06:21:27;101784.06;;;11.78;100.00
9249;BME280;4660;41.768;26.198;2022-12-18T06:23:53;101815.50;;;11.91;100.00
9249;BME280;4660;41.768;26.198;2022-12-18T06:26:18;101809.00;;;11.93;100.00
9249;BME280;4660;41.768;26.198;2022-12-18T06:28:44;101812.53;;;12.16;100.00
9249;BME280;4660;41.768;26.198;2022-12-18T06:31:11;101835.06;;;12.37;100.00
9249;BME280;4660;41.768;26.198;2022-12-18T06:33:37;101834.13;;;12.16;100.00
9249;BME280;4660;41.768;26.198;2022-12-18T06:36:08;101847.72;;;12.03;100.00
9249;BME280;4660;41.768;26.198;2022-12-18T06:38:37;101857.41;;;12.06;100.00
9249;BME280;4660;41.768;26.198;2022-12-18T06:41:11;101857.91;;;12.00;100.00
9249;BME280;4660;41.768;26.198;2022-12-18T06:43:37;101847.84;;;11.91;100.00
9249;BME280;4660;41.768;26.198;2022-12-18T06:46:03;101849.47;;;11.93;100.00
9249;BME280;4660;41.768;26.198;2022-12-18T06:48:30;101865.41;;;12.07;100.00
9249;BME280;4660;41.768;26.198;2022-12-18T06:50:55;101854.34;;;12.10;100.00
9249;BME280;4660;41.768;26.198;2022-12-18T06:53:21;101853.59;;;12.20;100.00
9249;BME280;4660;41.768;26.198;2022-12-18T06:55:47;101893.94;;;12.44;100.00
9249;BME280;4660;41.768;26.198;2022-12-18T06:58:13;101898.13;;;12.36;100.00
9249;BME280;4660;41.768;26.198;2022-12-18T07:00:38;101884.03;;;12.22;100.00
9249;BME280;4660;41.768;26.198;2022-12-18T07:03:04;101908.56;;;12.30;100.00
9249;BME280;4660;41.768;26.198;2022-12-18T07:05:30;101909.19;;;12.22;100.00
9249;BME280;4660;41.768;26.198;2022-12-18T07:07:55;101922.66;;;12.22;100.00
9249;BME280;4660;41.768;26.198;2022-12-18T07:10:21;101893.22;;;12.08;100.00
9249;BME280;4660;41.768;26.198;2022-12-18T07:12:49;101911.25;;;12.19;100.00
9249;BME280;4660;41.768;26.198;2022-12-18T07:15:15;101930.34;;;12.49;100.00
9249;BME280;4660;41.768;26.198;2022-12-18T07:17:41;101939.31;;;12.61;100.00
9249;BME280;4660;41.768;26.198;2022-12-18T07:20:07;101901.06;;;12.33;100.00
9249;BME280;4660;41.768;26.198;2022-12-18T07:22:34;101901.44;;;12.18;100.00
9249;BME280;4660;41.768;26.198;2022-12-18T07:25:00;101918.47;;;12.07;100.00
9249;BME280;4660;41.768;26.198;2022-12-18T07:27:26;101920.91;;;12.21;100.00
9249;BME280;4660;41.768;26.198;2022-12-18T07:29:52;101960.94;;;12.38;100.00
9249;BME280;4660;41.768;26.198;2022-12-18T07:32:19;101948.91;;;12.31;100.00
9249;BME280;4660;41.768;26.198;2022-12-18T07:34:45;101938.09;;;12.20;100.00
9249;BME280;4660;41.768;26.198;2022-12-18T07:37:11;101964.13;;;12.44;100.00
9249;BME280;4660;41.768;26.198;2022-12-18T07:39:37;101941.53;;;12.11;100.00
9249;BME280;4660;41.768;26.198;2022-12-18T07:42:03;101950.97;;;12.17;100.00
9249;BME280;4660;41.768;26.198;2022-12-18T07:44:51;101987.91;;;12.50;100.00
9249;BME280;4660;41.768;26.198;2022-12-18T07:47:20;101976.88;;;12.30;100.00
9249;BME280;4660;41.768;26.198;2022-12-18T07:49:48;101994.78;;;12.43;100.00
9249;BME280;4660;41.768;26.198;2022-12-18T07:52:13;101960.66;;;12.08;100.00
9249;BME280;4660;41.768;26.198;2022-12-18T07:54:40;101915.13;;;11.92;100.00
9249;BME280;4660;41.768;26.198;2022-12-18T07:57:07;101983.50;;;12.15;100.00
9249;BME280;4660;41.768;26.198;2022-12-18T07:59:35;101928.31;;;12.08;100.00
9249;BME280;4660;41.768;26.198;2022-12-18T08:02:01;101956.00;;;12.21;100.00
9249;BME280;4660;41.768;26.198;2022-12-18T08:04:27;101989.16;;;12.46;100.00
9249;BME280;4660;41.768;26.198;2022-12-18T08:06:56;101994.44;;;12.36;100.00
9249;BME280;4660;41.768;26.198;2022-12-18T08:09:26;102011.09;;;12.41;100.00
9249;BME280;4660;41.768;26.198;2022-12-18T08:11:53;101983.09;;;12.20;100.00
9249;BME280;4660;41.768;26.198;2022-12-18T08:14:20;102009.50;;;12.38;100.00
9249;BME280;4660;41.768;26.198;2022-12-18T08:16:46;102015.13;;;12.35;100.00
9249;BME280;4660;41.768;26.198;2022-12-18T08:19:12;101998.47;;;12.42;100.00
9249;BME280;4660;41.768;26.198;2022-12-18T08:21:38;102021.16;;;12.61;100.00
9249;BME280;4660;41.768;26.198;2022-12-18T08:24:05;102004.22;;;12.71;100.00
9249;BME280;4660;41.768;26.198;2022-12-18T08:26:31;102000.69;;;12.59;100.00
9249;BME280;4660;41.768;26.198;2022-12-18T08:28:58;102040.69;;;12.76;100.00
9249;BME280;4660;41.768;26.198;2022-12-18T08:31:29;102033.84;;;12.72;100.00
9249;BME280;4660;41.768;26.198;2022-12-18T08:33:55;102039.22;;;12.61;100.00
9249;BME280;4660;41.768;26.198;2022-12-18T08:36:22;102039.34;;;12.59;100.00
9249;BME280;4660;41.768;26.198;2022-12-18T08:38:48;102042.41;;;12.55;100.00
9249;BME280;4660;41.768;26.198;2022-12-18T08:41:16;102040.81;;;12.52;100.00
9249;BME280;4660;41.768;26.198;2022-12-18T08:43:42;102040.19;;;12.71;100.00
9249;BME280;4660;41.768;26.198;2022-12-18T08:46:27;102017.97;;;12.56;100.00
9249;BME280;4660;41.768;26.198;2022-12-18T08:48:57;102032.47;;;12.89;100.00
9249;BME280;4660;41.768;26.198;2022-12-18T08:51:23;102036.75;;;13.03;100.00
9249;BME280;4660;41.768;26.198;2022-12-18T08:53:49;102048.06;;;13.08;100.00
9249;BME280;4660;41.768;26.198;2022-12-18T08:56:15;102034.03;;;12.91;100.00
9249;BME280;4660;41.768;26.198;2022-12-18T08:58:42;102027.81;;;12.80;100.00
9249;BME280;4660;41.768;26.198;2022-12-18T09:01:10;101962.41;;;12.54;100.00
9249;BME280;4660;41.768;26.198;2022-12-18T09:03:37;102042.16;;;12.91;100.00
9249;BME280;4660;41.768;26.198;2022-12-18T09:06:04;101995.41;;;12.68;100.00
9249;BME280;4660;41.768;26.198;2022-12-18T09:08:30;101985.56;;;12.56;100.00
9249;BME280;4660;41.768;26.198;2022-12-18T09:10:56;102031.59;;;12.88;100.00
9249;BME280;4660;41.768;26.198;2022-12-18T09:13:22;101995.75;;;12.75;100.00
9249;BME280;4660;41.768;26.198;2022-12-18T09:15:51;102012.19;;;12.94;100.00
9249;BME280;4660;41.768;26.198;2022-12-18T09:18:19;102041.41;;;12.89;100.00
9249;BME280;4660;41.768;26.198;2022-12-18T09:20:46;102016.50;;;12.52;100.00
9249;BME280;4660;41.768;26.198;2022-12-18T09:23:12;102019.09;;;12.54;100.00
9249;BME280;4660;41.768;26.198;2022-12-18T09:25:38;102030.75;;;12.54;100.00
9249;BME280;4660;41.768;26.198;2022-12-18T09:28:06;102032.31;;;12.57;100.00
9249;BME280;4660;41.768;26.198;2022-12-18T09:30:37;102030.00;;;12.52;100.00
9249;BME280;4660;41.768;26.198;2022-12-18T09:33:05;102016.16;;;12.68;100.00
9249;BME280;4660;41.768;26.198;2022-12-18T09:35:33;102021.53;;;12.90;100.00
9249;BME280;4660;41.768;26.198;2022-12-18T09:38:01;102033.41;;;12.99;100.00
9249;BME280;4660;41.768;26.198;2022-12-18T09:40:29;102027.91;;;12.89;100.00
9249;BME280;4660;41.768;26.198;2022-12-18T09:43:01;102038.22;;;12.84;100.00
9249;BME280;4660;41.768;26.198;2022-12-18T09:45:39;102023.63;;;12.76;100.00
9249;BME280;4660;41.768;26.198;2022-12-18T09:48:10;102014.91;;;12.61;100.00
9249;BME280;4660;41.768;26.198;2022-12-18T09:50:39;102036.03;;;12.67;100.00
9249;BME280;4660;41.768;26.198;2022-12-18T09:53:12;102040.09;;;12.73;100.00
9249;BME280;4660;41.768;26.198;2022-12-18T09:55:45;102014.53;;;12.77;100.00
9249;BME280;4660;41.768;26.198;2022-12-18T09:58:34;102046.44;;;13.05;100.00
9249;BME280;4660;41.768;26.198;2022-12-18T10:01:02;101999.81;;;12.70;100.00
9249;BME280;4660;41.768;26.198;2022-12-18T10:03:31;102017.09;;;12.78;100.00
9249;BME280;4660;41.768;26.198;2022-12-18T10:18:21;102051.47;;;12.54;100.00
9249;BME280;4660;41.768;26.198;2022-12-18T10:21:01;102020.06;;;12.42;100.00
9249;BME280;4660;41.768;26.198;2022-12-18T10:26:18;102031.09;;;12.50;100.00
9249;BME280;4660;41.768;26.198;2022-12-18T10:28:46;102053.69;;;12.71;100.00
9249;BME280;4660;41.768;26.198;2022-12-18T10:31:22;102026.47;;;12.52;100.00
9249;BME280;4660;41.768;26.198;2022-12-18T10:33:49;101971.94;;;12.13;100.00
9249;BME280;4660;41.768;26.198;2022-12-18T10:36:16;102005.81;;;12.28;100.00
9249;BME280;4660;41.768;26.198;2022-12-18T10:38:43;101980.91;;;12.25;100.00
9249;BME280;4660;41.768;26.198;2022-12-18T10:43:48;102046.59;;;12.59;100.00
9249;BME280;4660;41.768;26.198;2022-12-18T10:46:21;101910.38;;;12.07;100.00
9249;BME280;4660;41.768;26.198;2022-12-18T10:54:21;102038.50;;;12.59;100.00
9249;BME280;4660;41.768;26.198;2022-12-18T10:56:48;102047.56;;;12.58;100.00
9249;BME280;4660;41.768;26.198;2022-12-18T10:59:18;102046.09;;;12.54;100.00
9249;BME280;4660;41.768;26.198;2022-12-18T11:01:56;102049.03;;;12.73;100.00
9249;BME280;4660;41.768;26.198;2022-12-18T11:04:50;102033.81;;;12.83;100.00
9249;BME280;4660;41.768;26.198;2022-12-18T11:07:17;102050.25;;;13.03;100.00
9249;BME280;4660;41.768;26.198;2022-12-18T11:10:00;102000.56;;;12.72;100.00
9249;BME280;4660;41.768;26.198;2022-12-18T11:12:28;102055.28;;;12.96;100.00
9249;BME280;4660;41.768;26.198;2022-12-18T11:15:00;102037.63;;;12.81;100.00
9249;BME280;4660;41.768;26.198;2022-12-18T11:17:34;102036.75;;;12.69;100.00
9249;BME280;4660;41.768;26.198;2022-12-18T11:20:05;102059.22;;;12.81;100.00
9249;BME280;4660;41.768;26.198;2022-12-18T11:22:35;102061.53;;;12.85;100.00
9249;BME280;4660;41.768;26.198;2022-12-18T11:27:39;102075.69;;;13.00;100.00
9249;BME280;4660;41.768;26.198;2022-12-18T11:30:34;102083.19;;;13.08;100.00
9249;BME280;4660;41.768;26.198;2022-12-18T11:33:15;102073.59;;;13.04;100.00
9249;BME280;4660;41.768;26.198;2022-12-18T11:35:55;102092.25;;;12.95;100.00
9249;BME280;4660;41.768;26.198;2022-12-18T11:38:26;102072.38;;;12.74;100.00
9249;BME280;4660;41.768;26.198;2022-12-18T11:41:00;102105.28;;;13.02;100.00
9249;BME280;4660;41.768;26.198;2022-12-18T11:43:53;102083.53;;;12.70;100.00
9249;BME280;4660;41.768;26.198;2022-12-18T11:49:24;102102.03;;;12.63;100.00
9249;BME280;4660;41.768;26.198;2022-12-18T11:54:44;102099.84;;;12.68;100.00
9249;BME280;4660;41.768;26.198;2022-12-18T12:11:16;102108.25;;;12.41;100.00
9249;BME280;4660;41.768;26.198;2022-12-18T12:25:47;102116.75;;;12.36;100.00
9249;BME280;4660;41.768;26.198;2022-12-18T12:39:40;102136.38;;;12.38;100.00
9249;BME280;4660;41.768;26.198;2022-12-18T12:45:27;102138.28;;;12.25;100.00
9249;BME280;4660;41.768;26.198;2022-12-18T12:47:57;102139.44;;;12.10;100.00
9249;BME280;4660;41.768;26.198;2022-12-18T12:50:26;102150.09;;;12.00;100.00
9249;BME280;4660;41.768;26.198;2022-12-18T12:52:57;102167.53;;;12.07;100.00
9249;BME280;4660;41.768;26.198;2022-12-18T12:55:28;102142.81;;;11.77;100.00
9249;BME280;4660;41.768;26.198;2022-12-18T13:01:28;102160.47;;;11.94;100.00
9249;BME280;4660;41.768;26.198;2022-12-18T13:04:04;102186.28;;;12.09;100.00
9249;BME280;4660;41.768;26.198;2022-12-18T13:06:54;102178.69;;;12.14;100.00
9249;BME280;4660;41.768;26.198;2022-12-18T13:09:25;102158.69;;;11.81;100.00
9249;BME280;4660;41.768;26.198;2022-12-18T13:12:03;102154.09;;;11.58;100.00
9249;BME280;4660;41.768;26.198;2022-12-18T13:14:47;102146.81;;;11.35;100.00
9249;BME280;4660;41.768;26.198;2022-12-18T13:20:09;102196.59;;;11.42;100.00
9249;BME280;4660;41.768;26.198;2022-12-18T13:22:48;102209.34;;;11.40;100.00
9249;BME280;4660;41.768;26.198;2022-12-18T13:25:35;102187.22;;;11.35;100.00
9249;BME280;4660;41.768;26.198;2022-12-18T13:36:02;102170.56;;;10.79;100.00
9249;BME280;4660;41.768;26.198;2022-12-18T13:38:37;102200.19;;;10.91;100.00
9249;BME280;4660;41.768;26.198;2022-12-18T13:43:51;102239.94;;;11.13;100.00
9249;BME280;4660;41.768;26.198;2022-12-18T13:46:46;102203.00;;;10.90;100.00
9249;BME280;4660;41.768;26.198;2022-12-18T13:51:46;102153.03;;;10.73;100.00
9249;BME280;4660;41.768;26.198;2022-12-18T13:54:30;102256.78;;;11.29;100.00
9249;BME280;4660;41.768;26.198;2022-12-18T13:56:58;102155.06;;;10.44;100.00
9249;BME280;4660;41.768;26.198;2022-12-18T13:59:26;102135.56;;;10.13;100.00
9249;BME280;4660;41.768;26.198;2022-12-18T14:02:07;102266.09;;;10.86;100.00
9249;BME280;4660;41.768;26.198;2022-12-18T14:04:48;102182.56;;;10.35;100.00
9249;BME280;4660;41.768;26.198;2022-12-18T14:07:18;102261.25;;;10.91;100.00
9249;BME280;4660;41.768;26.198;2022-12-18T14:09:50;102141.56;;;10.31;100.00
9249;BME280;4660;41.768;26.198;2022-12-18T14:12:26;102218.84;;;10.94;100.00
9249;BME280;4660;41.768;26.198;2022-12-18T14:18:03;102217.53;;;10.74;100.00
9249;BME280;4660;41.768;26.198;2022-12-18T14:20:42;102254.56;;;10.84;100.00
9249;BME280;4660;41.768;26.198;2022-12-18T14:23:39;102280.09;;;10.78;100.00
9249;BME280;4660;41.768;26.198;2022-12-18T14:26:26;102195.28;;;10.18;100.00
9249;BME280;4660;41.768;26.198;2022-12-18T14:28:57;102244.03;;;10.41;100.00
9249;BME280;4660;41.768;26.198;2022-12-18T14:31:33;102234.88;;;10.16;100.00
9249;BME280;4660;41.768;26.198;2022-12-18T14:34:21;102312.94;;;10.83;100.00
9249;BME280;4660;41.768;26.198;2022-12-18T14:36:53;102274.69;;;10.78;100.00
9249;BME280;4660;41.768;26.198;2022-12-18T14:39:20;102259.69;;;10.61;100.00
9249;BME280;4660;41.768;26.198;2022-12-18T14:41:48;102282.75;;;10.65;100.00
9249;BME280;4660;41.768;26.198;2022-12-18T14:44:14;102284.09;;;10.45;100.00
9249;BME280;4660;41.768;26.198;2022-12-18T14:46:45;102328.97;;;10.45;100.00
9249;BME280;4660;41.768;26.198;2022-12-18T14:49:31;102318.38;;;10.29;100.00
9249;BME280;4660;41.768;26.198;2022-12-18T14:52:06;102334.34;;;10.45;100.00
9249;BME280;4660;41.768;26.198;2022-12-18T14:54:48;102337.66;;;10.36;100.00
9249;BME280;4660;41.768;26.198;2022-12-18T14:57:34;102342.88;;;10.79;100.00
9249;BME280;4660;41.768;26.198;2022-12-18T15:00:14;102339.22;;;10.80;100.00
9249;BME280;4660;41.768;26.198;2022-12-18T15:02:41;102319.88;;;10.33;100.00
9249;BME280;4660;41.768;26.198;2022-12-18T15:10:19;102349.00;;;10.12;100.00
9249;BME280;4660;41.768;26.198;2022-12-18T15:17:59;102321.16;;;9.56;100.00
9249;BME280;4660;41.768;26.198;2022-12-18T15:20:26;102349.59;;;9.60;100.00